sensor_id;sensor_type;location;lat;lon;timestamp;temperature;humidity
14079;DHT22;7115;50.150;8.568;2023-10-31T00:01:51;13.50;99.90
14079;DHT22;7115;50.150;8.568;2023-10-31T00:04:18;13.50;99.90
14079;DHT22;7115;50.150;8.568;2023-10-31T00:06:45;13.50;99.90
14079;DHT22;7115;50.150;8.568;2023-10-31T00:09:12;13.60;99.90
14079;DHT22;7115;50.150;8.568;2023-10-31T00:11:41;13.60;99.90
14079;DHT22;7115;50.150;8.568;2023-10-31T00:14:09;13.60;99.90
14079;DHT22;7115;50.150;8.568;2023-10-31T00:16:56;13.60;99.90
14079;DHT22;7115;50.150;8.568;2023-10-31T00:19:23;13.50;99.90
14079;DHT22;7115;50.150;8.568;2023-10-31T00:21:50;13.50;99.90
14079;DHT22;7115;50.150;8.568;2023-10-31T00:24:17;13.50;99.90
14079;DHT22;7115;50.150;8.568;2023-10-31T00:26:44;13.50;99.90
14079;DHT22;7115;50.150;8.568;2023-10-31T00:29:13;13.50;99.90
14079;DHT22;7115;50.150;8.568;2023-10-31T00:31:39;13.50;99.90
14079;DHT22;7115;50.150;8.568;2023-10-31T00:34:09;13.50;99.90
14079;DHT22;7115;50.150;8.568;2023-10-31T00:36:37;13.50;99.90
14079;DHT22;7115;50.150;8.568;2023-10-31T00:39:04;13.40;99.90
14079;DHT22;7115;50.150;8.568;2023-10-31T00:41:31;13.40;99.90
14079;DHT22;7115;50.150;8.568;2023-10-31T00:43:58;13.40;99.90
14079;DHT22;7115;50.150;8.568;2023-10-31T00:46:26;13.30;99.90
14079;DHT22;7115;50.150;8.568;2023-10-31T00:48:53;13.30;99.90
14079;DHT22;7115;50.150;8.568;2023-10-31T00:51:21;13.30;99.90
14079;DHT22;7115;50.150;8.568;2023-10-31T00:53:48;13.20;99.90
14079;DHT22;7115;50.150;8.568;2023-10-31T00:56:15;13.20;99.90
14079;DHT22;7115;50.150;8.568;2023-10-31T00:58:42;13.20;99.90
14079;DHT22;7115;50.150;8.568;2023-10-31T01:01:09;13.20;99.90
14079;DHT22;7115;50.150;8.568;2023-10-31T01:03:37;13.20;99.90
14079;DHT22;7115;50.150;8.568;2023-10-31T01:06:05;13.20;99.90
14079;DHT22;7115;50.150;8.568;2023-10-31T01:08:32;13.20;99.90
14079;DHT22;7115;50.150;8.568;2023-10-31T01:10:59;13.20;99.90
14079;DHT22;7115;50.150;8.568;2023-10-31T01:13:26;13.10;99.90
14079;DHT22;7115;50.150;8.568;2023-10-31T01:15:52;13.10;99.90
14079;DHT22;7115;50.150;8.568;2023-10-31T01:18:19;13.10;99.90
14079;DHT22;7115;50.150;8.568;2023-10-31T01:20:48;13.20;99.90
14079;DHT22;7115;50.150;8.568;2023-10-31T01:23:14;13.10;99.90
14079;DHT22;7115;50.150;8.568;2023-10-31T01:25:41;13.20;99.90
14079;DHT22;7115;50.150;8.568;2023-10-31T01:28:09;13.10;99.90
14079;DHT22;7115;50.150;8.568;2023-10-31T01:30:35;13.10;99.90
14079;DHT22;7115;50.150;8.568;2023-10-31T01:33:02;13.10;99.90
14079;DHT22;7115;50.150;8.568;2023-10-31T01:35:29;13.00;99.90
14079;DHT22;7115;50.150;8.568;2023-10-31T01:37:58;13.00;99.90
14079;DHT22;7115;50.150;8.568;2023-10-31T01:40:25;13.00;99.90
14079;DHT22;7115;50.150;8.568;2023-10-31T01:42:51;13.00;99.90
14079;DHT22;7115;50.150;8.568;2023-10-31T01:45:18;12.90;99.90
14079;DHT22;7115;50.150;8.568;2023-10-31T01:47:48;12.90;99.90
14079;DHT22;7115;50.150;8.568;2023-10-31T01:50:16;12.80;99.90
14079;DHT22;7115;50.150;8.568;2023-10-31T01:52:44;12.70;99.90
14079;DHT22;7115;50.150;8.568;2023-10-31T01:55:13;12.70;99.90
14079;DHT22;7115;50.150;8.568;2023-10-31T01:57:41;12.70;99.90
14079;DHT22;7115;50.150;8.568;2023-10-31T02:00:12;12.60;99.90
14079;DHT22;7115;50.150;8.568;2023-10-31T02:02:40;12.60;99.90
14079;DHT22;7115;50.150;8.568;2023-10-31T02:05:11;12.60;99.90
14079;DHT22;7115;50.150;8.568;2023-10-31T02:07:38;12.60;99.90
14079;DHT22;7115;50.150;8.568;2023-10-31T02:10:05;12.60;99.90
14079;DHT22;7115;50.150;8.568;2023-10-31T02:12:35;12.60;99.90
14079;DHT22;7115;50.150;8.568;2023-10-31T02:15:03;12.40;99.90
14079;DHT22;7115;50.150;8.568;2023-10-31T02:17:30;12.60;99.90
14079;DHT22;7115;50.150;8.568;2023-10-31T02:19:57;12.50;99.90
14079;DHT22;7115;50.150;8.568;2023-10-31T02:22:25;12.50;99.90
14079;DHT22;7115;50.150;8.568;2023-10-31T02:24:52;12.50;99.90
14079;DHT22;7115;50.150;8.568;2023-10-31T02:27:19;12.50;99.90
14079;DHT22;7115;50.150;8.568;2023-10-31T02:29:46;12.50;99.90
14079;DHT22;7115;50.150;8.568;2023-10-31T02:32:13;12.50;99.90
14079;DHT22;7115;50.150;8.568;2023-10-31T02:34:40;12.50;99.90
14079;DHT22;7115;50.150;8.568;2023-10-31T02:37:07;12.50;99.90
14079;DHT22;7115;50.150;8.568;2023-10-31T02:39:36;12.50;99.90
14079;DHT22;7115;50.150;8.568;2023-10-31T02:42:04;12.50;99.90
14079;DHT22;7115;50.150;8.568;2023-10-31T02:44:31;12.50;99.90
14079;DHT22;7115;50.150;8.568;2023-10-31T02:46:57;12.40;99.90
14079;DHT22;7115;50.150;8.568;2023-10-31T02:49:24;12.30;99.90
14079;DHT22;7115;50.150;8.568;2023-10-31T02:51:51;12.30;99.90
14079;DHT22;7115;50.150;8.568;2023-10-31T02:54:18;12.30;99.90
14079;DHT22;7115;50.150;8.568;2023-10-31T02:56:46;12.20;99.90
14079;DHT22;7115;50.150;8.568;2023-10-31T02:59:13;12.20;99.90
14079;DHT22;7115;50.150;8.568;2023-10-31T03:01:40;12.20;99.90
14079;DHT22;7115;50.150;8.568;2023-10-31T03:04:07;12.10;99.90
14079;DHT22;7115;50.150;8.568;2023-10-31T03:06:34;12.10;99.90
14079;DHT22;7115;50.150;8.568;2023-10-31T03:09:01;12.00;99.90
14079;DHT22;7115;50.150;8.568;2023-10-31T03:11:28;11.90;99.90
14079;DHT22;7115;50.150;8.568;2023-10-31T03:13:56;12.00;99.90
14079;DHT22;7115;50.150;8.568;2023-10-31T03:16:24;12.00;99.90
14079;DHT22;7115;50.150;8.568;2023-10-31T03:18:51;11.90;99.90
14079;DHT22;7115;50.150;8.568;2023-10-31T03:21:18;11.90;99.90
14079;DHT22;7115;50.150;8.568;2023-10-31T03:23:48;11.90;99.90
14079;DHT22;7115;50.150;8.568;2023-10-31T03:26:15;11.80;99.90
14079;DHT22;7115;50.150;8.568;2023-10-31T03:28:42;11.80;99.90
14079;DHT22;7115;50.150;8.568;2023-10-31T03:31:11;11.70;99.90
14079;DHT22;7115;50.150;8.568;2023-10-31T03:33:38;11.70;99.90
14079;DHT22;7115;50.150;8.568;2023-10-31T03:36:06;11.70;99.90
14079;DHT22;7115;50.150;8.568;2023-10-31T03:38:32;11.70;99.90
14079;DHT22;7115;50.150;8.568;2023-10-31T03:41:00;11.70;99.90
14079;DHT22;7115;50.150;8.568;2023-10-31T03:43:27;11.60;99.90
14079;DHT22;7115;50.150;8.568;2023-10-31T03:45:54;11.60;99.90
14079;DHT22;7115;50.150;8.568;2023-10-31T03:48:22;11.60;99.90
14079;DHT22;7115;50.150;8.568;2023-10-31T03:50:49;11.60;99.90
14079;DHT22;7115;50.150;8.568;2023-10-31T03:53:17;11.60;99.90
14079;DHT22;7115;50.150;8.568;2023-10-31T03:55:44;11.60;99.90
14079;DHT22;7115;50.150;8.568;2023-10-31T03:58:11;11.60;99.90
14079;DHT22;7115;50.150;8.568;2023-10-31T04:00:39;11.40;99.90
14079;DHT22;7115;50.150;8.568;2023-10-31T04:03:06;11.60;99.90
14079;DHT22;7115;50.150;8.568;2023-10-31T04:05:34;11.60;99.90
14079;DHT22;7115;50.150;8.568;2023-10-31T04:08:01;11.60;99.90
14079;DHT22;7115;50.150;8.568;2023-10-31T04:10:28;11.60;99.90
14079;DHT22;7115;50.150;8.568;2023-10-31T04:12:55;11.60;99.90
14079;DHT22;7115;50.150;8.568;2023-10-31T04:15:22;11.50;99.90
14079;DHT22;7115;50.150;8.568;2023-10-31T04:17:49;11.50;99.90
14079;DHT22;7115;50.150;8.568;2023-10-31T04:20:16;11.50;99.90
14079;DHT22;7115;50.150;8.568;2023-10-31T04:22:44;11.50;99.90
14079;DHT22;7115;50.150;8.568;2023-10-31T04:25:11;11.50;99.90
14079;DHT22;7115;50.150;8.568;2023-10-31T04:27:38;11.50;99.90
14079;DHT22;7115;50.150;8.568;2023-10-31T04:30:06;11.50;99.90
14079;DHT22;7115;50.150;8.568;2023-10-31T04:32:33;11.50;99.90
14079;DHT22;7115;50.150;8.568;2023-10-31T04:35:00;11.50;99.90
14079;DHT22;7115;50.150;8.568;2023-10-31T04:37:27;11.50;99.90
14079;DHT22;7115;50.150;8.568;2023-10-31T04:39:58;11.50;99.90
14079;DHT22;7115;50.150;8.568;2023-10-31T04:42:24;11.50;99.90
14079;DHT22;7115;50.150;8.568;2023-10-31T04:44:51;11.50;99.90
14079;DHT22;7115;50.150;8.568;2023-10-31T04:47:18;11.50;99.90
14079;DHT22;7115;50.150;8.568;2023-10-31T04:49:45;11.50;99.90
14079;DHT22;7115;50.150;8.568;2023-10-31T04:52:12;11.50;99.90
14079;DHT22;7115;50.150;8.568;2023-10-31T04:54:40;11.40;99.90
14079;DHT22;7115;50.150;8.568;2023-10-31T04:57:08;11.40;99.90
14079;DHT22;7115;50.150;8.568;2023-10-31T04:59:35;11.40;99.90
14079;DHT22;7115;50.150;8.568;2023-10-31T05:02:02;11.40;99.90
14079;DHT22;7115;50.150;8.568;2023-10-31T05:04:29;11.40;99.90
14079;DHT22;7115;50.150;8.568;2023-10-31T05:06:56;11.40;99.90
14079;DHT22;7115;50.150;8.568;2023-10-31T05:09:23;11.40;99.90
14079;DHT22;7115;50.150;8.568;2023-10-31T05:11:50;11.40;99.90
14079;DHT22;7115;50.150;8.568;2023-10-31T05:14:19;11.50;99.90
14079;DHT22;7115;50.150;8.568;2023-10-31T05:16:45;11.50;99.90
14079;DHT22;7115;50.150;8.568;2023-10-31T05:19:12;11.50;99.90
14079;DHT22;7115;50.150;8.568;2023-10-31T05:21:39;11.50;99.90
14079;DHT22;7115;50.150;8.568;2023-10-31T05:24:07;11.50;99.90
14079;DHT22;7115;50.150;8.568;2023-10-31T05:26:34;11.50;99.90
14079;DHT22;7115;50.150;8.568;2023-10-31T05:29:01;11.50;99.90
14079;DHT22;7115;50.150;8.568;2023-10-31T05:31:30;11.50;99.90
14079;DHT22;7115;50.150;8.568;2023-10-31T05:33:57;11.50;99.90
14079;DHT22;7115;50.150;8.568;2023-10-31T05:36:25;11.60;99.90
14079;DHT22;7115;50.150;8.568;2023-10-31T05:38:52;11.60;99.90
14079;DHT22;7115;50.150;8.568;2023-10-31T05:41:19;11.60;99.90
14079;DHT22;7115;50.150;8.568;2023-10-31T05:43:46;11.60;99.90
14079;DHT22;7115;50.150;8.568;2023-10-31T05:46:13;11.60;99.90
14079;DHT22;7115;50.150;8.568;2023-10-31T05:48:44;11.60;99.90
14079;DHT22;7115;50.150;8.568;2023-10-31T05:51:12;11.60;99.90
14079;DHT22;7115;50.150;8.568;2023-10-31T05:53:40;11.70;99.90
14079;DHT22;7115;50.150;8.568;2023-10-31T05:56:09;11.70;99.90
14079;DHT22;7115;50.150;8.568;2023-10-31T05:58:37;11.70;99.90
14079;DHT22;7115;50.150;8.568;2023-10-31T06:01:04;11.70;99.90
14079;DHT22;7115;50.150;8.568;2023-10-31T06:03:31;11.70;99.90
14079;DHT22;7115;50.150;8.568;2023-10-31T06:06:00;11.70;99.90
14079;DHT22;7115;50.150;8.568;2023-10-31T06:08:27;11.70;99.90
14079;DHT22;7115;50.150;8.568;2023-10-31T06:10:55;11.70;99.90
14079;DHT22;7115;50.150;8.568;2023-10-31T06:13:23;11.70;99.90
14079;DHT22;7115;50.150;8.568;2023-10-31T06:15:53;11.80;99.90
14079;DHT22;7115;50.150;8.568;2023-10-31T06:18:23;11.70;99.90
14079;DHT22;7115;50.150;8.568;2023-10-31T06:20:50;11.70;99.90
14079;DHT22;7115;50.150;8.568;2023-10-31T06:23:18;11.70;99.90
14079;DHT22;7115;50.150;8.568;2023-10-31T06:25:45;11.70;99.90
14079;DHT22;7115;50.150;8.568;2023-10-31T06:28:13;11.70;99.90
14079;DHT22;7115;50.150;8.568;2023-10-31T06:30:40;11.70;99.90
14079;DHT22;7115;50.150;8.568;2023-10-31T06:33:07;11.70;99.90
14079;DHT22;7115;50.150;8.568;2023-10-31T06:35:35;11.70;99.90
14079;DHT22;7115;50.150;8.568;2023-10-31T06:38:02;11.70;99.90
14079;DHT22;7115;50.150;8.568;2023-10-31T06:40:31;11.70;99.90
14079;DHT22;7115;50.150;8.568;2023-10-31T06:42:58;11.70;99.90
14079;DHT22;7115;50.150;8.568;2023-10-31T06:45:25;11.70;99.90
14079;DHT22;7115;50.150;8.568;2023-10-31T06:47:53;11.70;99.90
14079;DHT22;7115;50.150;8.568;2023-10-31T06:50:20;11.70;99.90
14079;DHT22;7115;50.150;8.568;2023-10-31T06:52:47;11.70;99.90
14079;DHT22;7115;50.150;8.568;2023-10-31T06:55:14;11.70;99.90
14079;DHT22;7115;50.150;8.568;2023-10-31T06:57:43;11.70;99.90
14079;DHT22;7115;50.150;8.568;2023-10-31T07:00:11;11.70;99.90
14079;DHT22;7115;50.150;8.568;2023-10-31T07:02:39;11.90;99.90
14079;DHT22;7115;50.150;8.568;2023-10-31T07:05:07;11.90;99.90
14079;DHT22;7115;50.150;8.568;2023-10-31T07:07:34;11.90;99.90
14079;DHT22;7115;50.150;8.568;2023-10-31T07:10:01;11.90;99.90
14079;DHT22;7115;50.150;8.568;2023-10-31T07:12:28;11.90;99.90
14079;DHT22;7115;50.150;8.568;2023-10-31T07:14:56;11.90;99.90
14079;DHT22;7115;50.150;8.568;2023-10-31T07:17:25;11.90;99.90
14079;DHT22;7115;50.150;8.568;2023-10-31T07:19:52;11.80;99.90
14079;DHT22;7115;50.150;8.568;2023-10-31T07:22:19;11.80;99.90
14079;DHT22;7115;50.150;8.568;2023-10-31T07:24:46;11.80;99.90
14079;DHT22;7115;50.150;8.568;2023-10-31T07:27:13;11.80;99.90
14079;DHT22;7115;50.150;8.568;2023-10-31T07:29:40;11.80;99.90
14079;DHT22;7115;50.150;8.568;2023-10-31T07:32:09;11.80;99.90
14079;DHT22;7115;50.150;8.568;2023-10-31T07:34:40;11.80;99.90
14079;DHT22;7115;50.150;8.568;2023-10-31T07:37:07;11.80;99.90
14079;DHT22;7115;50.150;8.568;2023-10-31T07:39:34;11.80;99.90
14079;DHT22;7115;50.150;8.568;2023-10-31T07:42:01;11.80;99.90
14079;DHT22;7115;50.150;8.568;2023-10-31T07:44:28;11.80;99.90
14079;DHT22;7115;50.150;8.568;2023-10-31T07:46:55;11.80;99.90
14079;DHT22;7115;50.150;8.568;2023-10-31T07:49:23;11.80;99.90
14079;DHT22;7115;50.150;8.568;2023-10-31T07:51:50;11.70;99.90
14079;DHT22;7115;50.150;8.568;2023-10-31T07:54:17;11.70;99.90
14079;DHT22;7115;50.150;8.568;2023-10-31T07:56:45;11.70;99.90
14079;DHT22;7115;50.150;8.568;2023-10-31T07:59:12;11.80;99.90
14079;DHT22;7115;50.150;8.568;2023-10-31T08:01:39;11.70;99.90
14079;DHT22;7115;50.150;8.568;2023-10-31T08:04:06;11.70;99.90
14079;DHT22;7115;50.150;8.568;2023-10-31T08:06:35;11.70;99.90
14079;DHT22;7115;50.150;8.568;2023-10-31T08:09:02;11.70;99.90
14079;DHT22;7115;50.150;8.568;2023-10-31T08:11:32;11.70;99.90
14079;DHT22;7115;50.150;8.568;2023-10-31T08:14:01;11.70;99.90
14079;DHT22;7115;50.150;8.568;2023-10-31T08:16:28;11.80;99.90
14079;DHT22;7115;50.150;8.568;2023-10-31T08:18:55;11.80;99.90
14079;DHT22;7115;50.150;8.568;2023-10-31T08:21:22;11.80;99.90
14079;DHT22;7115;50.150;8.568;2023-10-31T08:23:51;11.90;99.90
14079;DHT22;7115;50.150;8.568;2023-10-31T08:26:18;11.90;99.90
14079;DHT22;7115;50.150;8.568;2023-10-31T08:28:45;11.90;99.90
14079;DHT22;7115;50.150;8.568;2023-10-31T08:31:11;11.90;99.90
14079;DHT22;7115;50.150;8.568;2023-10-31T08:33:39;11.90;99.90
14079;DHT22;7115;50.150;8.568;2023-10-31T08:36:06;11.90;99.90
14079;DHT22;7115;50.150;8.568;2023-10-31T08:38:33;11.90;99.90
14079;DHT22;7115;50.150;8.568;2023-10-31T08:41:02;12.00;99.90
14079;DHT22;7115;50.150;8.568;2023-10-31T08:43:29;12.00;99.90
14079;DHT22;7115;50.150;8.568;2023-10-31T08:45:56;12.10;99.90
14079;DHT22;7115;50.150;8.568;2023-10-31T08:48:23;12.00;99.90
14079;DHT22;7115;50.150;8.568;2023-10-31T08:50:51;12.10;99.90
14079;DHT22;7115;50.150;8.568;2023-10-31T08:53:18;12.10;99.90
14079;DHT22;7115;50.150;8.568;2023-10-31T08:55:48;12.10;99.90
14079;DHT22;7115;50.150;8.568;2023-10-31T08:58:16;12.10;99.90
14079;DHT22;7115;50.150;8.568;2023-10-31T09:00:45;12.10;99.90
14079;DHT22;7115;50.150;8.568;2023-10-31T09:03:12;12.20;99.90
14079;DHT22;7115;50.150;8.568;2023-10-31T09:05:40;12.10;99.90
14079;DHT22;7115;50.150;8.568;2023-10-31T09:08:06;12.30;99.90
14079;DHT22;7115;50.150;8.568;2023-10-31T09:10:35;12.30;99.90
14079;DHT22;7115;50.150;8.568;2023-10-31T09:13:02;12.40;99.90
14079;DHT22;7115;50.150;8.568;2023-10-31T09:15:30;12.40;99.90
14079;DHT22;7115;50.150;8.568;2023-10-31T09:17:57;12.50;99.90
14079;DHT22;7115;50.150;8.568;2023-10-31T09:20:24;12.50;99.90
14079;DHT22;7115;50.150;8.568;2023-10-31T09:22:51;12.60;99.90
14079;DHT22;7115;50.150;8.568;2023-10-31T09:25:19;12.60;99.90
14079;DHT22;7115;50.150;8.568;2023-10-31T09:27:46;12.60;99.90
14079;DHT22;7115;50.150;8.568;2023-10-31T09:30:13;12.60;99.90
14079;DHT22;7115;50.150;8.568;2023-10-31T09:32:41;12.60;99.90
14079;DHT22;7115;50.150;8.568;2023-10-31T09:35:08;12.60;99.90
14079;DHT22;7115;50.150;8.568;2023-10-31T09:37:36;12.60;99.90
14079;DHT22;7115;50.150;8.568;2023-10-31T09:40:04;12.70;99.90
14079;DHT22;7115;50.150;8.568;2023-10-31T09:42:31;12.70;99.90
14079;DHT22;7115;50.150;8.568;2023-10-31T09:44:58;12.70;99.90
14079;DHT22;7115;50.150;8.568;2023-10-31T09:47:25;12.70;99.90
14079;DHT22;7115;50.150;8.568;2023-10-31T09:49:53;12.80;99.90
14079;DHT22;7115;50.150;8.568;2023-10-31T09:52:20;12.80;99.90
14079;DHT22;7115;50.150;8.568;2023-10-31T09:54:49;12.80;99.90
14079;DHT22;7115;50.150;8.568;2023-10-31T09:57:16;12.80;99.90
14079;DHT22;7115;50.150;8.568;2023-10-31T09:59:44;12.90;99.90
14079;DHT22;7115;50.150;8.568;2023-10-31T10:02:11;12.90;99.90
14079;DHT22;7115;50.150;8.568;2023-10-31T10:04:38;12.90;99.90
14079;DHT22;7115;50.150;8.568;2023-10-31T10:07:06;12.90;99.90
14079;DHT22;7115;50.150;8.568;2023-10-31T10:09:33;12.90;99.90
14079;DHT22;7115;50.150;8.568;2023-10-31T10:12:01;13.00;99.90
14079;DHT22;7115;50.150;8.568;2023-10-31T10:14:28;13.00;99.90
14079;DHT22;7115;50.150;8.568;2023-10-31T10:16:58;13.10;99.90
14079;DHT22;7115;50.150;8.568;2023-10-31T10:19:25;13.10;99.90
14079;DHT22;7115;50.150;8.568;2023-10-31T10:21:53;13.00;99.90
14079;DHT22;7115;50.150;8.568;2023-10-31T10:24:23;13.10;99.90
14079;DHT22;7115;50.150;8.568;2023-10-31T10:26:51;13.10;99.90
14079;DHT22;7115;50.150;8.568;2023-10-31T10:29:18;13.10;99.90
14079;DHT22;7115;50.150;8.568;2023-10-31T10:31:46;13.20;99.90
14079;DHT22;7115;50.150;8.568;2023-10-31T10:34:14;13.30;99.90
14079;DHT22;7115;50.150;8.568;2023-10-31T10:36:46;13.40;99.90
14079;DHT22;7115;50.150;8.568;2023-10-31T10:39:15;13.50;99.90
14079;DHT22;7115;50.150;8.568;2023-10-31T10:41:47;13.60;99.90
14079;DHT22;7115;50.150;8.568;2023-10-31T10:44:19;13.70;99.90
14079;DHT22;7115;50.150;8.568;2023-10-31T10:46:48;13.90;99.90
14079;DHT22;7115;50.150;8.568;2023-10-31T10:49:19;14.10;99.90
14079;DHT22;7115;50.150;8.568;2023-10-31T10:51:53;14.30;99.90
14079;DHT22;7115;50.150;8.568;2023-10-31T10:54:32;14.50;99.90
14079;DHT22;7115;50.150;8.568;2023-10-31T10:57:09;14.70;99.90
14079;DHT22;7115;50.150;8.568;2023-10-31T10:59:41;14.80;99.90
14079;DHT22;7115;50.150;8.568;2023-10-31T11:02:09;14.80;99.90
14079;DHT22;7115;50.150;8.568;2023-10-31T11:04:37;14.80;99.90
14079;DHT22;7115;50.150;8.568;2023-10-31T11:07:05;14.80;99.90
14079;DHT22;7115;50.150;8.568;2023-10-31T11:09:33;14.80;99.90
14079;DHT22;7115;50.150;8.568;2023-10-31T11:12:02;14.80;99.90
14079;DHT22;7115;50.150;8.568;2023-10-31T11:14:30;14.90;99.90
14079;DHT22;7115;50.150;8.568;2023-10-31T11:17:01;15.00;99.90
14079;DHT22;7115;50.150;8.568;2023-10-31T11:19:30;15.00;99.90
14079;DHT22;7115;50.150;8.568;2023-10-31T11:22:00;15.10;99.90
14079;DHT22;7115;50.150;8.568;2023-10-31T11:24:27;15.30;99.90
14079;DHT22;7115;50.150;8.568;2023-10-31T11:26:59;15.40;99.90
14079;DHT22;7115;50.150;8.568;2023-10-31T11:29:28;15.50;99.90
14079;DHT22;7115;50.150;8.568;2023-10-31T11:31:55;15.40;99.90
14079;DHT22;7115;50.150;8.568;2023-10-31T11:34:23;15.30;99.90
14079;DHT22;7115;50.150;8.568;2023-10-31T11:36:52;15.20;99.90
14079;DHT22;7115;50.150;8.568;2023-10-31T11:39:21;15.20;99.90
14079;DHT22;7115;50.150;8.568;2023-10-31T11:41:54;15.20;99.90
14079;DHT22;7115;50.150;8.568;2023-10-31T11:44:23;15.20;99.90
14079;DHT22;7115;50.150;8.568;2023-10-31T11:46:51;15.20;99.90
14079;DHT22;7115;50.150;8.568;2023-10-31T11:49:45;15.20;99.90
14079;DHT22;7115;50.150;8.568;2023-10-31T11:52:14;15.20;99.90
14079;DHT22;7115;50.150;8.568;2023-10-31T11:54:42;15.20;99.90
14079;DHT22;7115;50.150;8.568;2023-10-31T11:57:09;15.20;99.90
14079;DHT22;7115;50.150;8.568;2023-10-31T11:59:37;15.30;99.90
14079;DHT22;7115;50.150;8.568;2023-10-31T12:02:14;15.40;99.90
14079;DHT22;7115;50.150;8.568;2023-10-31T12:04:41;15.50;99.90
14079;DHT22;7115;50.150;8.568;2023-10-31T12:07:08;15.50;99.90
14079;DHT22;7115;50.150;8.568;2023-10-31T12:09:46;15.60;99.90
14079;DHT22;7115;50.150;8.568;2023-10-31T12:12:13;15.70;99.90
14079;DHT22;7115;50.150;8.568;2023-10-31T12:14:40;15.80;99.90
14079;DHT22;7115;50.150;8.568;2023-10-31T12:17:07;15.70;99.90
14079;DHT22;7115;50.150;8.568;2023-10-31T12:19:38;15.60;99.90
14079;DHT22;7115;50.150;8.568;2023-10-31T12:22:13;15.40;99.90
14079;DHT22;7115;50.150;8.568;2023-10-31T12:24:40;15.40;99.90
14079;DHT22;7115;50.150;8.568;2023-10-31T12:27:07;15.40;99.90
14079;DHT22;7115;50.150;8.568;2023-10-31T12:29:34;15.40;99.90
14079;DHT22;7115;50.150;8.568;2023-10-31T12:32:01;15.40;99.90
14079;DHT22;7115;50.150;8.568;2023-10-31T12:34:29;15.40;99.90
14079;DHT22;7115;50.150;8.568;2023-10-31T12:36:58;15.30;99.90
14079;DHT22;7115;50.150;8.568;2023-10-31T12:39:28;15.20;99.90
14079;DHT22;7115;50.150;8.568;2023-10-31T12:41:56;15.20;99.90
14079;DHT22;7115;50.150;8.568;2023-10-31T12:44:26;15.10;99.90
14079;DHT22;7115;50.150;8.568;2023-10-31T12:46:54;15.10;99.90
14079;DHT22;7115;50.150;8.568;2023-10-31T12:49:21;15.20;99.90
14079;DHT22;7115;50.150;8.568;2023-10-31T12:51:58;15.30;99.90
14079;DHT22;7115;50.150;8.568;2023-10-31T12:54:30;15.50;99.90
14079;DHT22;7115;50.150;8.568;2023-10-31T12:57:02;15.70;99.90
14079;DHT22;7115;50.150;8.568;2023-10-31T12:59:30;15.70;99.90
14079;DHT22;7115;50.150;8.568;2023-10-31T13:01:57;15.70;99.90
14079;DHT22;7115;50.150;8.568;2023-10-31T13:04:25;15.60;99.90
14079;DHT22;7115;50.150;8.568;2023-10-31T13:06:59;15.50;99.90
14079;DHT22;7115;50.150;8.568;2023-10-31T13:09:29;15.50;99.90
14079;DHT22;7115;50.150;8.568;2023-10-31T13:12:04;15.40;99.90
14079;DHT22;7115;50.150;8.568;2023-10-31T13:14:31;15.50;99.90
14079;DHT22;7115;50.150;8.568;2023-10-31T13:16:58;15.50;99.90
14079;DHT22;7115;50.150;8.568;2023-10-31T13:19:25;15.50;99.90
14079;DHT22;7115;50.150;8.568;2023-10-31T13:21:52;15.40;99.90
14079;DHT22;7115;50.150;8.568;2023-10-31T13:24:21;15.40;99.90
14079;DHT22;7115;50.150;8.568;2023-10-31T13:26:48;15.30;99.90
14079;DHT22;7115;50.150;8.568;2023-10-31T13:29:19;15.30;99.90
14079;DHT22;7115;50.150;8.568;2023-10-31T13:31:46;15.30;99.90
14079;DHT22;7115;50.150;8.568;2023-10-31T13:34:13;15.30;99.90
14079;DHT22;7115;50.150;8.568;2023-10-31T13:36:40;15.40;99.90
14079;DHT22;7115;50.150;8.568;2023-10-31T13:39:07;15.60;99.90
14079;DHT22;7115;50.150;8.568;2023-10-31T13:41:36;15.70;99.90
14079;DHT22;7115;50.150;8.568;2023-10-31T13:44:04;15.80;99.90
14079;DHT22;7115;50.150;8.568;2023-10-31T13:46:31;15.80;99.90
14079;DHT22;7115;50.150;8.568;2023-10-31T13:48:58;15.80;99.90
14079;DHT22;7115;50.150;8.568;2023-10-31T13:51:25;15.80;99.90
14079;DHT22;7115;50.150;8.568;2023-10-31T13:53:52;15.70;99.90
14079;DHT22;7115;50.150;8.568;2023-10-31T13:56:19;16.00;99.90
14079;DHT22;7115;50.150;8.568;2023-10-31T13:58:47;16.10;99.90
14079;DHT22;7115;50.150;8.568;2023-10-31T14:01:14;16.30;99.90
14079;DHT22;7115;50.150;8.568;2023-10-31T14:03:42;16.70;99.90
14079;DHT22;7115;50.150;8.568;2023-10-31T14:06:12;16.90;99.90
14079;DHT22;7115;50.150;8.568;2023-10-31T14:08:39;17.10;99.90
14079;DHT22;7115;50.150;8.568;2023-10-31T14:11:06;17.30;99.90
14079;DHT22;7115;50.150;8.568;2023-10-31T14:13:36;17.40;99.90
14079;DHT22;7115;50.150;8.568;2023-10-31T14:16:05;17.50;99.90
14079;DHT22;7115;50.150;8.568;2023-10-31T14:18:32;17.50;99.90
14079;DHT22;7115;50.150;8.568;2023-10-31T14:20:59;17.50;99.90
14079;DHT22;7115;50.150;8.568;2023-10-31T14:23:26;17.60;99.90
14079;DHT22;7115;50.150;8.568;2023-10-31T14:25:53;17.50;99.90
14079;DHT22;7115;50.150;8.568;2023-10-31T14:28:20;17.50;99.90
14079;DHT22;7115;50.150;8.568;2023-10-31T14:30:47;17.40;99.90
14079;DHT22;7115;50.150;8.568;2023-10-31T14:33:15;17.50;99.90
14079;DHT22;7115;50.150;8.568;2023-10-31T14:35:42;17.40;99.90
14079;DHT22;7115;50.150;8.568;2023-10-31T14:38:09;17.40;99.90
14079;DHT22;7115;50.150;8.568;2023-10-31T14:40:36;17.40;99.90
14079;DHT22;7115;50.150;8.568;2023-10-31T14:43:03;17.40;99.90
14079;DHT22;7115;50.150;8.568;2023-10-31T14:45:30;17.30;99.90
14079;DHT22;7115;50.150;8.568;2023-10-31T14:47:57;17.30;99.90
14079;DHT22;7115;50.150;8.568;2023-10-31T14:50:25;17.10;99.90
14079;DHT22;7115;50.150;8.568;2023-10-31T14:52:52;17.00;99.90
14079;DHT22;7115;50.150;8.568;2023-10-31T14:55:19;16.80;99.90
14079;DHT22;7115;50.150;8.568;2023-10-31T14:57:46;16.70;99.90
14079;DHT22;7115;50.150;8.568;2023-10-31T15:00:13;16.50;99.90
14079;DHT22;7115;50.150;8.568;2023-10-31T15:02:41;16.40;99.90
14079;DHT22;7115;50.150;8.568;2023-10-31T15:05:08;16.20;99.90
14079;DHT22;7115;50.150;8.568;2023-10-31T15:07:37;16.10;99.90
14079;DHT22;7115;50.150;8.568;2023-10-31T15:10:05;15.90;99.90
14079;DHT22;7115;50.150;8.568;2023-10-31T15:12:32;15.80;99.90
14079;DHT22;7115;50.150;8.568;2023-10-31T15:14:59;15.70;99.90
14079;DHT22;7115;50.150;8.568;2023-10-31T15:17:26;15.50;99.90
14079;DHT22;7115;50.150;8.568;2023-10-31T15:19:53;15.50;99.90
14079;DHT22;7115;50.150;8.568;2023-10-31T15:22:21;15.40;99.90
14079;DHT22;7115;50.150;8.568;2023-10-31T15:24:49;15.30;99.90
14079;DHT22;7115;50.150;8.568;2023-10-31T15:27:16;15.20;99.90
14079;DHT22;7115;50.150;8.568;2023-10-31T15:29:44;15.20;99.90
14079;DHT22;7115;50.150;8.568;2023-10-31T15:32:11;15.10;99.90
14079;DHT22;7115;50.150;8.568;2023-10-31T15:34:39;15.00;99.90
14079;DHT22;7115;50.150;8.568;2023-10-31T15:37:08;14.90;99.90
14079;DHT22;7115;50.150;8.568;2023-10-31T15:39:35;14.90;99.90
14079;DHT22;7115;50.150;8.568;2023-10-31T15:42:04;14.90;99.90
14079;DHT22;7115;50.150;8.568;2023-10-31T15:44:33;14.80;99.90
14079;DHT22;7115;50.150;8.568;2023-10-31T15:47:00;14.80;99.90
14079;DHT22;7115;50.150;8.568;2023-10-31T15:49:27;14.80;99.90